Time;durP1;ratioP1;P1;durP2;ratioP2;P2;SDS_P1;SDS_P2;PMS_P1;PMS_P2;Temp;Humidity;BMP_temperature;BMP_pressure;BME280_temperature;BME280_humidity;BME280_pressure;Samples;Min_cycle;Max_cycle;Signal;HPM_P1;HPM_P2
2023/12/02 00:01:59;;;;;;;;;40.00;33.00;;;;;2.50;78.34;100783.28;6215362;22;45302;-70
2023/12/02 00:04:27;;;;;;;;;33.25;28.50;;;;;2.47;77.68;100785.94;6216973;22;46287;-71
2023/12/02 00:06:53;;;;;;;;;37.25;28.00;;;;;2.48;76.67;100775.47;6189612;22;45899;-71
2023/12/02 00:09:18;;;;;;;;;38.25;31.00;;;;;2.51;76.35;100783.25;6216972;22;45193;-69
2023/12/02 00:11:49;;;;;;;;;36.25;31.25;;;;;2.55;77.15;100790.13;6217245;22;45474;-70
2023/12/02 00:14:14;;;;;;;;;38.50;29.75;;;;;2.51;76.64;100779.78;6216199;22;45465;-71
2023/12/02 00:16:39;;;;;;;;;36.00;35.50;;;;;2.54;76.45;100782.34;6189967;22;45252;-70
2023/12/02 00:19:10;;;;;;;;;43.00;28.25;;;;;2.55;74.65;100782.31;6216760;22;45329;-70
2023/12/02 00:21:36;;;;;;;;;31.50;24.75;;;;;2.48;74.91;100787.66;6190080;22;45262;-70
2023/12/02 00:24:02;;;;;;;;;33.50;28.25;;;;;2.48;74.22;100783.31;6216433;22;45325;-71
2023/12/02 00:26:27;;;;;;;;;49.00;36.25;;;;;2.51;74.99;100785.00;6217232;22;45307;-71
2023/12/02 00:28:53;;;;;;;;;37.00;28.75;;;;;2.39;75.17;100754.72;6216585;22;45229;-71
2023/12/02 00:31:18;;;;;;;;;32.00;26.75;;;;;2.46;75.41;100771.16;6216724;22;45267;-71
2023/12/02 00:33:43;;;;;;;;;40.25;29.50;;;;;2.53;75.20;100794.53;6217245;22;45542;-71
2023/12/02 00:36:09;;;;;;;;;39.50;28.75;;;;;2.36;75.41;100762.59;6217110;22;45268;-71
2023/12/02 00:38:38;;;;;;;;;31.25;27.25;;;;;2.51;76.55;100792.84;6189970;22;45266;-71
2023/12/02 00:41:03;;;;;;;;;30.75;26.75;;;;;2.49;74.72;100787.63;6216298;22;45448;-71
2023/12/02 00:43:29;;;;;;;;;33.50;27.25;;;;;2.49;74.21;100779.78;6215921;22;45249;-71
2023/12/02 00:45:54;;;;;;;;;32.50;27.25;;;;;2.50;75.25;100780.66;6216971;22;45201;-70
2023/12/02 00:48:19;;;;;;;;;42.25;30.25;;;;;2.51;75.50;100785.88;6217503;22;45307;-70
2023/12/02 00:50:45;;;;;;;;;31.00;29.50;;;;;2.52;75.65;100777.13;6216512;22;45411;-71
2023/12/02 00:53:10;;;;;;;;;39.75;29.50;;;;;2.53;75.75;100781.47;6216719;22;45323;-71
2023/12/02 00:55:35;;;;;;;;;35.50;25.00;;;;;2.51;77.03;100785.88;6216872;22;45320;-71
2023/12/02 00:58:01;;;;;;;;;34.00;28.00;;;;;2.52;76.35;100784.97;6217420;22;45290;-70
2023/12/02 01:00:26;;;;;;;;;39.00;28.25;;;;;2.55;76.30;100787.53;6189630;22;45703;-71
2023/12/02 01:02:52;;;;;;;;;36.50;25.25;;;;;2.56;74.71;100788.41;6216750;22;45252;-71
2023/12/02 01:05:17;;;;;;;;;38.00;30.00;;;;;2.52;74.80;100782.34;6216726;22;45242;-71
2023/12/02 01:07:43;;;;;;;;;34.25;29.00;;;;;2.36;75.81;100770.41;6217199;22;45297;-71
2023/12/02 01:10:11;;;;;;;;;33.25;25.25;;;;;2.51;76.50;100782.41;6216688;22;45186;-71
2023/12/02 01:12:38;;;;;;;;;29.75;26.50;;;;;2.50;74.35;100791.97;6216330;22;45268;-71
2023/12/02 01:15:03;;;;;;;;;29.50;23.00;;;;;2.35;72.93;100773.94;6216227;22;45180;-70
2023/12/02 01:17:29;;;;;;;;;25.50;24.25;;;;;2.41;73.98;100789.50;6217132;22;45248;-70
2023/12/02 01:19:54;;;;;;;;;32.75;28.50;;;;;2.41;72.70;100792.09;6216582;22;45275;-71
2023/12/02 01:22:19;;;;;;;;;22.00;20.25;;;;;2.45;74.09;100799.03;6216698;22;45301;-71
2023/12/02 01:24:47;;;;;;;;;33.75;19.50;;;;;2.30;74.25;100778.34;6216584;22;45352;-70
2023/12/02 01:27:13;;;;;;;;;26.50;23.50;;;;;2.43;75.64;100798.16;6217012;22;45258;-71
2023/12/02 01:29:38;;;;;;;;;34.75;22.75;;;;;2.34;76.06;100782.63;6216236;22;45245;-71
2023/12/02 01:32:04;;;;;;;;;34.75;24.75;;;;;2.34;73.92;100781.78;6216163;22;46003;-70
2023/12/02 01:34:30;;;;;;;;;31.75;26.75;;;;;2.41;72.84;100814.72;6216964;22;45354;-70
2023/12/02 01:36:55;;;;;;;;;28.00;26.75;;;;;2.41;73.97;100809.50;6216991;22;45258;-71
2023/12/02 01:39:21;;;;;;;;;27.25;27.25;;;;;2.40;75.97;100818.22;6216318;22;45204;-71
2023/12/02 01:41:46;;;;;;;;;29.50;25.75;;;;;2.28;74.43;100806.22;6216536;22;46038;-70
2023/12/02 01:44:12;;;;;;;;;37.00;22.75;;;;;2.36;74.51;100817.38;6216097;22;45289;-70
2023/12/02 01:46:37;;;;;;;;;28.75;22.50;;;;;2.41;72.83;100830.38;6216799;22;45272;-70
2023/12/02 01:49:04;;;;;;;;;36.50;28.50;;;;;2.37;73.00;100824.34;6215241;22;45391;-70
2023/12/02 01:51:30;;;;;;;;;22.75;19.00;;;;;2.38;73.55;100841.75;6216525;22;45352;-70
2023/12/02 01:53:56;;;;;;;;;29.50;26.25;;;;;2.36;73.47;100835.66;6216442;22;45206;-71
2023/12/02 01:56:21;;;;;;;;;30.75;23.00;;;;;2.23;74.06;100825.41;6216795;22;45727;-70
2023/12/02 01:58:47;;;;;;;;;29.00;23.50;;;;;2.28;72.87;100847.09;6216488;22;45250;-70
2023/12/02 02:01:16;;;;;;;;;31.75;27.50;;;;;2.27;73.77;100858.41;6190103;22;47997;-71
2023/12/02 02:03:41;;;;;;;;;35.00;29.25;;;;;2.23;73.99;100854.97;6216247;22;45256;-71
2023/12/02 02:06:10;;;;;;;;;30.50;24.50;;;;;2.26;76.46;100857.53;6216933;22;45353;-70
2023/12/02 02:08:36;;;;;;;;;29.25;25.00;;;;;2.24;74.30;100863.66;6216451;22;45555;-70
2023/12/02 02:11:02;;;;;;;;;30.00;27.00;;;;;2.24;76.51;100880.19;6216778;22;45910;-71
2023/12/02 02:13:27;;;;;;;;;33.75;32.25;;;;;2.15;75.25;100862.03;6215567;22;45204;-71
2023/12/02 02:15:56;;;;;;;;;29.75;26.00;;;;;2.30;74.37;100887.94;6217011;22;45221;-70
2023/12/02 02:18:21;;;;;;;;;29.25;24.75;;;;;2.28;74.90;100883.63;6189912;22;45269;-71
2023/12/02 02:20:51;;;;;;;;;40.25;27.00;;;;;2.19;75.29;100874.16;6215749;22;45382;-70
2023/12/02 02:23:18;;;;;;;;;27.25;24.25;;;;;2.07;75.01;100864.72;6189652;22;45512;-70
2023/12/02 02:25:44;;;;;;;;;31.25;31.00;;;;;2.19;76.21;100896.78;6216671;22;45265;-70
2023/12/02 02:28:09;;;;;;;;;29.75;27.75;;;;;2.23;77.52;100901.06;6216514;22;45228;-71
2023/12/02 02:30:35;;;;;;;;;26.00;22.50;;;;;2.15;76.89;100888.13;6215972;22;45256;-71
2023/12/02 02:33:00;;;;;;;;;33.25;31.75;;;;;2.18;77.37;100897.66;6216651;22;45178;-70
2023/12/02 02:35:25;;;;;;;;;33.25;25.50;;;;;2.15;77.17;100895.94;6189715;22;45257;-71
2023/12/02 02:37:51;;;;;;;;;31.25;28.25;;;;;2.16;80.93;100904.66;6216657;22;45157;-71
2023/12/02 02:40:16;;;;;;;;;35.50;26.50;;;;;2.16;76.79;100902.88;6216355;22;45206;-70
2023/12/02 02:42:41;;;;;;;;;23.25;20.75;;;;;2.02;77.00;100889.16;6189657;22;45215;-70
2023/12/02 02:45:07;;;;;;;;;38.00;28.25;;;;;2.09;77.14;100906.47;6215877;22;45974;-70
2023/12/02 02:47:33;;;;;;;;;38.75;25.25;;;;;2.08;78.25;100905.59;6216444;22;45194;-71
2023/12/02 02:49:58;;;;;;;;;39.75;28.75;;;;;2.00;77.86;100907.41;6215955;22;46233;-71
2023/12/02 02:52:24;;;;;;;;;31.25;24.75;;;;;1.95;77.66;100911.81;6214825;22;45352;-71
2023/12/02 02:54:49;;;;;;;;;39.75;29.75;;;;;1.93;77.55;100915.31;6215976;22;45246;-71
2023/12/02 02:57:14;;;;;;;;;27.75;23.75;;;;;1.94;77.85;100914.44;6216020;22;45173;-71
2023/12/02 02:59:40;;;;;;;;;31.25;24.75;;;;;1.81;77.22;100898.03;6215371;22;45584;-70
2023/12/02 03:02:05;;;;;;;;;37.25;33.25;;;;;1.91;77.58;100923.16;6189178;22;45763;-71
2023/12/02 03:04:30;;;;;;;;;34.00;29.50;;;;;1.92;78.67;100931.84;6189593;22;45268;-70
2023/12/02 03:06:56;;;;;;;;;41.50;28.00;;;;;1.88;79.51;100937.97;6216198;22;45188;-70
2023/12/02 03:09:21;;;;;;;;;32.25;26.50;;;;;1.82;79.39;100927.59;6215968;22;45276;-71
2023/12/02 03:11:48;;;;;;;;;34.75;28.75;;;;;1.68;80.72;100909.47;6216387;22;45192;-70
2023/12/02 03:14:14;;;;;;;;;36.75;29.25;;;;;1.75;79.48;100932.00;6215394;22;45300;-70
2023/12/02 03:16:39;;;;;;;;;37.25;29.75;;;;;1.67;79.94;100933.81;6217400;22;45174;-71
2023/12/02 03:19:04;;;;;;;;;41.50;33.00;;;;;1.59;79.25;100925.19;6216732;22;45939;-71
2023/12/02 03:21:30;;;;;;;;;31.75;26.00;;;;;1.52;79.16;100931.34;6215479;22;45314;-71
2023/12/02 03:23:55;;;;;;;;;41.50;33.00;;;;;1.38;81.54;100904.53;6215752;22;45236;-71
2023/12/02 03:26:23;;;;;;;;;32.50;27.75;;;;;1.42;80.63;100924.47;6216598;22;45174;-71
2023/12/02 03:28:52;;;;;;;;;38.25;29.50;;;;;1.25;81.19;100914.19;6216397;22;46077;-71
2023/12/02 03:31:17;;;;;;;;;31.00;27.75;;;;;1.33;82.32;100933.25;6216995;22;45412;-70
2023/12/02 03:33:43;;;;;;;;;33.00;28.00;;;;;1.30;85.16;100948.91;6217204;22;45295;-71
2023/12/02 03:36:09;;;;;;;;;48.00;35.25;;;;;1.22;83.87;100932.44;6217515;22;45289;-71
2023/12/02 03:38:34;;;;;;;;;37.50;30.25;;;;;1.23;82.62;100944.59;6216840;22;45280;-71
2023/12/02 03:41:02;;;;;;;;;42.50;32.50;;;;;1.10;84.75;100931.66;6217148;22;45314;-71
2023/12/02 03:43:27;;;;;;;;;45.00;30.50;;;;;1.17;86.57;100943.78;6216657;22;45188;-71
2023/12/02 03:45:55;;;;;;;;;37.25;31.00;;;;;1.09;87.38;100945.53;6217423;22;45189;-70
2023/12/02 03:48:21;;;;;;;;;35.50;24.50;;;;;1.13;87.72;100949.88;6217116;22;45327;-70
2023/12/02 03:50:46;;;;;;;;;36.50;28.75;;;;;0.95;86.49;100938.69;6217151;22;45244;-71
2023/12/02 03:53:12;;;;;;;;;29.25;29.00;;;;;1.02;85.65;100948.19;6217674;22;45478;-71
2023/12/02 03:55:37;;;;;;;;;44.50;29.00;;;;;0.98;86.60;100956.06;6217530;22;45248;-71
2023/12/02 03:58:02;;;;;;;;;40.25;30.50;;;;;0.97;86.74;100957.78;6217387;22;45228;-71
2023/12/02 04:00:28;;;;;;;;;33.75;32.75;;;;;0.93;87.73;100956.06;6216679;22;45264;-71
2023/12/02 04:02:53;;;;;;;;;47.50;31.50;;;;;0.94;88.77;100965.63;6215876;22;45375;-71
2023/12/02 04:05:18;;;;;;;;;35.00;32.00;;;;;0.91;87.53;100962.16;6216896;22;45174;-71
2023/12/02 04:07:44;;;;;;;;;42.25;37.75;;;;;0.88;88.92;100960.41;6217153;22;45287;-70
2023/12/02 04:10:09;;;;;;;;;38.50;33.25;;;;;0.90;90.97;100974.31;6216787;22;45227;-71
2023/12/02 04:12:35;;;;;;;;;42.25;30.00;;;;;0.86;90.73;100966.50;6190347;22;45409;-71
2023/12/02 04:15:00;;;;;;;;;38.75;33.25;;;;;0.68;89.20;100959.69;6216635;22;45233;-71
2023/12/02 04:17:26;;;;;;;;;38.75;30.00;;;;;0.72;90.28;100971.78;6217160;22;46168;-71
2023/12/02 04:19:51;;;;;;;;;45.50;33.25;;;;;0.71;89.70;100971.81;6216333;22;45350;-70
2023/12/02 04:22:19;;;;;;;;;33.25;30.75;;;;;0.71;90.22;100997.84;6216807;22;45384;-70
2023/12/02 04:24:45;;;;;;;;;45.25;31.75;;;;;0.65;90.08;100992.66;6216814;22;45367;-70
2023/12/02 04:27:13;;;;;;;;;44.00;30.50;;;;;0.43;91.35;100971.91;6189958;22;47234;-70
2023/12/02 04:29:41;;;;;;;;;37.00;33.25;;;;;0.26;90.99;100947.69;6216211;22;45376;-70
2023/12/02 04:32:08;;;;;;;;;34.75;28.25;;;;;0.52;91.12;100997.03;6216762;22;45362;-71
2023/12/02 04:34:33;;;;;;;;;33.75;30.00;;;;;0.50;90.65;101001.38;6216898;22;45247;-71
2023/12/02 04:37:01;;;;;;;;;37.25;29.00;;;;;0.50;91.67;101011.78;6190335;22;45448;-71
2023/12/02 04:39:28;;;;;;;;;42.50;33.25;;;;;0.47;91.52;101022.19;6190152;22;45350;-71
2023/12/02 04:41:53;;;;;;;;;39.00;29.25;;;;;0.44;92.28;101015.28;6217039;22;45265;-71
2023/12/02 04:44:19;;;;;;;;;38.25;26.25;;;;;0.42;92.99;101021.34;6216232;22;45205;-71
2023/12/02 04:46:47;;;;;;;;;55.25;35.25;;;;;0.42;93.14;101024.81;6216890;22;45338;-70
2023/12/02 04:49:13;;;;;;;;;31.25;25.00;;;;;0.38;93.16;101027.44;6216845;22;45232;-71
2023/12/02 04:51:38;;;;;;;;;42.50;29.50;;;;;0.39;93.59;101032.59;6190096;22;45343;-70
2023/12/02 04:54:04;;;;;;;;;46.00;34.25;;;;;0.33;96.06;101027.44;6190216;22;45205;-70
2023/12/02 04:56:30;;;;;;;;;35.00;31.00;;;;;0.41;94.61;101053.44;6190210;22;47037;-70
2023/12/02 04:58:57;;;;;;;;;44.00;31.75;;;;;0.37;94.75;101047.38;6216271;22;45237;-70
2023/12/02 05:01:23;;;;;;;;;34.75;24.50;;;;;0.35;95.01;101049.13;6216827;22;45193;-70
2023/12/02 05:03:48;;;;;;;;;42.00;34.75;;;;;0.39;97.88;101063.00;6216751;22;45302;-70
2023/12/02 05:06:15;;;;;;;;;38.25;28.25;;;;;0.35;98.37;101062.13;6189658;22;46538;-70
2023/12/02 05:08:46;;;;;;;;;37.25;29.50;;;;;0.35;96.58;101062.13;6216731;22;45225;-70
2023/12/02 05:11:20;;;;;;;;;38.25;35.00;;;;;0.35;98.22;101072.53;6189468;22;45296;-71
2023/12/02 05:13:46;;;;;;;;;31.50;26.25;;;;;0.38;99.73;101077.72;6215949;22;45328;-70
2023/12/02 05:16:12;;;;;;;;;34.75;28.00;;;;;0.19;98.19;101056.94;6216641;22;45318;-71
2023/12/02 05:18:42;;;;;;;;;46.75;33.75;;;;;0.34;99.41;101083.78;6216723;22;45224;-70
2023/12/02 05:21:09;;;;;;;;;37.00;35.00;;;;;0.31;99.53;101089.00;6216226;22;45221;-71
2023/12/02 05:23:35;;;;;;;;;38.25;28.00;;;;;0.31;99.28;101091.59;6216577;22;45345;-71
2023/12/02 05:26:03;;;;;;;;;45.25;33.50;;;;;0.27;99.12;101095.06;6189831;22;47413;-70
2023/12/02 05:28:31;;;;;;;;;37.25;31.00;;;;;0.10;98.60;101068.19;6189399;22;45280;-71
2023/12/02 05:30:56;;;;;;;;;35.75;31.00;;;;;0.26;98.05;101095.09;6217231;22;45205;-71
2023/12/02 05:33:24;;;;;;;;;45.00;34.25;;;;;0.22;98.04;101091.63;6216610;22;45246;-71
2023/12/02 05:35:50;;;;;;;;;55.75;29.50;;;;;0.18;99.10;101095.06;6189449;22;47095;-70
2023/12/02 05:38:16;;;;;;;;;37.25;33.25;;;;;0.17;99.12;101111.53;6215850;22;45353;-70
2023/12/02 05:40:42;;;;;;;;;36.75;32.00;;;;;-0.07;99.83;101076.03;6216584;22;45172;-70
2023/12/02 05:43:08;;;;;;;;;39.50;28.25;;;;;0.03;100.00;101102.88;6190004;22;45379;-70
2023/12/02 05:45:33;;;;;;;;;39.25;32.50;;;;;0.12;100.00;101118.50;6216019;22;45473;-70
2023/12/02 05:47:59;;;;;;;;;50.00;38.50;;;;;0.05;100.00;101108.06;6216642;22;45286;-71
2023/12/02 05:50:25;;;;;;;;;49.50;38.25;;;;;0.09;100.00;101126.28;6217046;22;45340;-70
2023/12/02 05:52:50;;;;;;;;;45.00;35.00;;;;;-0.18;100.00;101088.13;6216617;22;45189;-70
2023/12/02 05:55:18;;;;;;;;;36.00;30.75;;;;;0.01;100.00;101122.81;6216697;22;45367;-70
2023/12/02 05:57:44;;;;;;;;;38.75;34.25;;;;;0.06;100.00;101128.88;6216387;22;45189;-70
2023/12/02 06:00:10;;;;;;;;;40.75;38.25;;;;;-0.04;100.00;101128.03;6189339;22;45267;-70
2023/12/02 06:02:35;;;;;;;;;42.75;37.25;;;;;0.04;100.00;101147.94;6189569;22;45573;-70
2023/12/02 06:05:01;;;;;;;;;42.75;33.75;;;;;0.04;100.00;101143.59;6216755;22;45663;-71
2023/12/02 06:07:27;;;;;;;;;46.50;34.50;;;;;-0.01;100.00;101141.00;6189720;22;45268;-70
2023/12/02 06:09:52;;;;;;;;;42.50;34.00;;;;;-0.03;100.00;101158.31;6215975;22;45320;-70
2023/12/02 06:12:18;;;;;;;;;42.50;33.50;;;;;0.03;100.00;101156.63;6216551;22;45391;-70
2023/12/02 06:14:43;;;;;;;;;38.25;31.50;;;;;-0.07;100.00;101161.81;6216070;22;45327;-70
2023/12/02 06:17:11;;;;;;;;;47.50;38.25;;;;;0.03;100.00;101180.00;6216692;22;45280;-71
2023/12/02 06:19:37;;;;;;;;;50.75;38.25;;;;;-0.02;100.00;101180.00;6216620;22;45261;-70
2023/12/02 06:22:02;;;;;;;;;43.00;32.75;;;;;-0.04;100.00;101182.59;6189963;22;45345;-70
2023/12/02 06:24:28;;;;;;;;;41.75;36.25;;;;;-0.07;100.00;101193.00;6216376;22;46185;-70
2023/12/02 06:26:53;;;;;;;;;44.75;34.50;;;;;-0.10;100.00;101174.78;6216896;22;45173;-71
2023/12/02 06:29:18;;;;;;;;;51.00;39.00;;;;;-0.10;100.00;101181.72;6215821;22;45771;-70
2023/12/02 06:31:44;;;;;;;;;43.50;31.25;;;;;-0.10;100.00;101189.53;6216445;22;45197;-70
2023/12/02 06:34:09;;;;;;;;;41.00;38.00;;;;;-0.16;100.00;101181.69;6216214;22;45193;-70
2023/12/02 06:36:34;;;;;;;;;46.00;35.50;;;;;-0.10;100.00;101192.13;6189626;22;45193;-70
2023/12/02 06:39:00;;;;;;;;;46.50;37.00;;;;;-0.14;100.00;101198.19;6189441;22;45154;-71
2023/12/02 06:41:26;;;;;;;;;51.25;40.75;;;;;-0.14;100.00;101200.78;6189803;22;45349;-72
2023/12/02 06:43:51;;;;;;;;;44.00;38.25;;;;;-0.28;100.00;101176.47;6215716;22;46188;-71
2023/12/02 06:46:23;;;;;;;;;42.75;30.00;;;;;-0.16;100.00;101211.16;6216606;22;45189;-70
2023/12/02 06:48:49;;;;;;;;;37.75;33.00;;;;;-0.12;100.00;101227.63;6216090;22;45278;-70
2023/12/02 06:51:15;;;;;;;;;39.75;32.50;;;;;-0.14;100.00;101224.16;6216454;22;45196;-70
2023/12/02 06:53:41;;;;;;;;;43.50;32.50;;;;;-0.21;100.00;101207.69;6188954;22;45964;-70
2023/12/02 06:56:21;;;;;;;;;39.50;33.50;;;;;-0.52;100.00;101164.25;6216164;22;45320;-70
2023/12/02 06:58:47;;;;;;;;;49.50;36.50;;;;;-0.23;100.00;101224.16;6215697;22;45190;-70
2023/12/02 07:01:26;;;;;;;;;40.25;33.50;;;;;-0.28;100.00;101221.53;6214553;22;45472;-70
2023/12/02 07:03:55;;;;;;;;;47.25;38.00;;;;;-0.26;100.00;101231.94;6215663;22;45993;-70
2023/12/02 07:06:20;;;;;;;;;43.50;40.00;;;;;-0.33;100.00;101228.44;6216027;22;45335;-70
2023/12/02 07:08:47;;;;;;;;;40.50;35.75;;;;;-0.31;100.00;101233.63;6215523;22;45324;-70
2023/12/02 07:11:12;;;;;;;;;44.50;37.25;;;;;-0.38;100.00;101234.47;6216184;22;45188;-70
2023/12/02 07:13:37;;;;;;;;;48.00;38.00;;;;;-0.32;100.00;101237.94;6214929;22;46053;-70
2023/12/02 07:16:03;;;;;;;;;44.25;36.00;;;;;-0.31;100.00;101249.22;6189504;22;45274;-70
2023/12/02 07:18:28;;;;;;;;;50.00;38.00;;;;;-0.41;100.00;101234.44;6216274;22;45236;-70
2023/12/02 07:20:54;;;;;;;;;37.50;33.25;;;;;-0.30;100.00;101254.44;6216312;22;45400;-70
2023/12/02 07:23:19;;;;;;;;;51.25;35.00;;;;;-0.42;100.00;101241.38;6215656;22;45548;-70
2023/12/02 07:25:45;;;;;;;;;58.25;36.50;;;;;-0.24;100.00;101270.06;6216440;22;45209;-70
2023/12/02 07:28:10;;;;;;;;;44.75;36.00;;;;;-0.20;100.00;101276.13;6216164;22;45172;-70
2023/12/02 07:30:36;;;;;;;;;45.25;35.00;;;;;-0.18;100.00;101279.59;6215214;22;45356;-70
2023/12/02 07:33:01;;;;;;;;;45.25;37.00;;;;;-0.25;100.00;101272.63;6215613;22;45365;-70
2023/12/02 07:35:30;;;;;;;;;68.00;32.75;;;;;-0.27;100.00;101271.75;6215414;22;45302;-70
2023/12/02 07:37:55;;;;;;;;;41.50;36.00;;;;;-0.31;100.00;101270.88;6215442;22;45359;-70
2023/12/02 07:40:23;;;;;;;;;42.00;36.50;;;;;-0.23;100.00;101276.13;6188199;22;45174;-70
2023/12/02 07:42:48;;;;;;;;;39.00;25.50;;;;;-0.29;100.00;101268.28;6215844;22;46617;-70
2023/12/02 07:45:14;;;;;;;;;38.50;36.50;;;;;-0.20;100.00;101286.53;6215231;22;45265;-70
2023/12/02 07:47:42;;;;;;;;;44.00;33.75;;;;;-0.20;100.00;101292.59;6215848;22;45255;-70
2023/12/02 07:50:08;;;;;;;;;61.25;39.50;;;;;-0.18;100.00;101284.78;6214794;22;45336;-70
2023/12/02 07:52:33;;;;;;;;;43.75;32.00;;;;;-0.16;100.00;101296.91;6215697;22;45277;-70
2023/12/02 07:54:58;;;;;;;;;31.00;28.25;;;;;-0.19;100.00;101291.72;6215623;22;45184;-70
2023/12/02 07:57:24;;;;;;;;;45.25;35.25;;;;;-0.14;100.00;101300.41;6215951;22;45237;-70
2023/12/02 07:59:49;;;;;;;;;43.00;35.75;;;;;-0.29;100.00;101276.94;6214899;22;45402;-70
2023/12/02 08:02:17;;;;;;;;;43.25;35.50;;;;;-0.12;100.00;101303.00;6216823;22;46166;-70
2023/12/02 08:04:42;;;;;;;;;43.00;34.25;;;;;-0.10;100.00;101322.09;6216577;22;45246;-70
2023/12/02 08:07:07;;;;;;;;;50.25;37.25;;;;;-0.11;100.00;101312.56;6217468;22;45177;-70
2023/12/02 08:09:33;;;;;;;;;44.75;33.25;;;;;-0.12;100.00;101316.88;6217029;22;45378;-69
2023/12/02 08:11:58;;;;;;;;;47.50;41.75;;;;;-0.19;100.00;101307.31;6216917;22;46354;-69
2023/12/02 08:14:24;;;;;;;;;57.50;40.75;;;;;-0.13;100.00;101324.69;6216268;22;45612;-70
2023/12/02 08:16:49;;;;;;;;;53.00;40.75;;;;;-0.20;100.00;101323.78;6217420;22;45412;-69
2023/12/02 08:19:14;;;;;;;;;50.00;36.25;;;;;-0.15;100.00;101329.88;6217105;22;45110;-69
2023/12/02 08:21:40;;;;;;;;;55.50;39.00;;;;;-0.33;100.00;101308.13;6217177;22;45175;-70
2023/12/02 08:24:06;;;;;;;;;49.50;40.50;;;;;-0.20;100.00;101334.19;6216987;22;45114;-69
2023/12/02 08:26:31;;;;;;;;;55.00;46.00;;;;;-0.17;100.00;101356.72;6190615;22;45343;-70
2023/12/02 08:28:56;;;;;;;;;46.50;37.50;;;;;-0.31;100.00;101332.38;6216062;22;45224;-70
2023/12/02 08:31:22;;;;;;;;;45.00;41.25;;;;;-0.15;100.00;101362.78;6216966;22;45314;-70
2023/12/02 08:33:47;;;;;;;;;58.00;45.00;;;;;-0.20;100.00;101349.78;6216509;22;45280;-70
2023/12/02 08:36:12;;;;;;;;;54.25;40.75;;;;;-0.12;100.00;101368.00;6217385;22;45232;-69
2023/12/02 08:38:38;;;;;;;;;45.25;39.50;;;;;-0.18;100.00;101358.44;6217033;22;45440;-69
2023/12/02 08:41:03;;;;;;;;;49.00;37.25;;;;;-0.15;100.00;101367.97;6190475;22;46975;-69
2023/12/02 08:43:28;;;;;;;;;67.25;43.25;;;;;-0.17;100.00;101368.00;6216799;22;45232;-70
2023/12/02 08:45:54;;;;;;;;;33.25;29.50;;;;;-0.26;100.00;101359.28;6190864;22;45286;-69
2023/12/02 08:48:19;;;;;;;;;48.75;41.00;;;;;-0.11;100.00;101374.94;6217089;22;45225;-69
2023/12/02 08:50:45;;;;;;;;;46.00;38.25;;;;;-0.09;100.00;101389.69;6217208;22;45354;-69
2023/12/02 08:53:10;;;;;;;;;51.00;43.75;;;;;-0.08;100.00;101393.16;6190244;22;45285;-69
2023/12/02 08:55:35;;;;;;;;;56.00;45.00;;;;;-0.07;100.00;101381.91;6217199;22;45174;-69
2023/12/02 08:58:02;;;;;;;;;54.00;44.25;;;;;-0.03;100.00;101396.63;6216984;22;45334;-69
2023/12/02 09:00:28;;;;;;;;;55.75;46.50;;;;;0.08;100.00;101409.69;6216774;22;45331;-69
2023/12/02 09:02:54;;;;;;;;;55.75;46.50;;;;;0.08;100.00;101409.69;6216948;22;45158;-70
2023/12/02 09:05:19;;;;;;;;;56.25;43.75;;;;;0.12;100.00;101403.66;6217326;22;45215;-70
2023/12/02 09:07:47;;;;;;;;;57.00;44.50;;;;;0.11;100.00;101405.38;6217038;22;45483;-70
2023/12/02 09:10:13;;;;;;;;;56.50;44.25;;;;;0.20;100.00;101412.34;6216654;22;45444;-70
2023/12/02 09:12:38;;;;;;;;;42.00;38.75;;;;;0.11;100.00;101397.56;6215699;22;45404;-70
2023/12/02 09:15:16;;;;;;;;;57.50;47.25;;;;;0.29;100.00;101426.28;6216386;22;45320;-70
2023/12/02 09:17:56;;;;;;;;;54.50;40.25;;;;;0.33;100.00;101425.41;6217110;22;45217;-69
2023/12/02 09:20:53;;;;;;;;;46.50;40.00;;;;;0.34;100.00;101416.75;6216160;22;45254;-69
2023/12/02 09:23:20;;;;;;;;;56.00;43.25;;;;;0.37;100.00;101426.31;6215364;22;45219;-70
2023/12/02 09:25:46;;;;;;;;;54.50;45.25;;;;;0.46;100.00;101436.75;6190002;22;45321;-69
2023/12/02 09:28:16;;;;;;;;;48.75;39.00;;;;;0.48;100.00;101440.25;6216358;22;45197;-69
2023/12/02 09:31:06;;;;;;;;;45.50;38.50;;;;;0.51;100.00;101432.44;6215733;22;46852;-69
2023/12/02 09:33:32;;;;;;;;;56.75;44.50;;;;;0.48;100.00;101435.03;6216231;22;45235;-69
2023/12/02 09:36:01;;;;;;;;;51.25;44.25;;;;;0.62;100.00;101441.16;6216912;22;45145;-69
2023/12/02 09:38:31;;;;;;;;;57.25;46.00;;;;;0.63;100.00;101445.50;6216468;22;45225;-69
2023/12/02 09:41:02;;;;;;;;;40.75;29.75;;;;;0.68;100.00;101449.00;6216559;22;45371;-70
2023/12/02 09:43:35;;;;;;;;;59.75;46.50;;;;;0.65;100.00;101454.19;6215909;22;45257;-69
2023/12/02 09:46:19;;;;;;;;;65.00;47.00;;;;;0.65;100.00;101451.59;6214920;22;45323;-69
2023/12/02 09:49:05;;;;;;;;;62.25;47.50;;;;;0.69;100.00;101447.25;6189741;22;45501;-69
2023/12/02 09:51:51;;;;;;;;;58.50;45.25;;;;;0.77;100.00;101450.75;6216935;22;46318;-69
2023/12/02 09:54:26;;;;;;;;;57.50;44.75;;;;;0.76;100.00;101455.06;6216531;22;45287;-70
2023/12/02 09:56:56;;;;;;;;;57.00;43.25;;;;;0.80;100.00;101458.56;6190055;22;45230;-69
2023/12/02 09:59:25;;;;;;;;;42.50;41.75;;;;;0.86;100.00;101450.75;6216225;22;45236;-69
2023/12/02 10:02:19;;;;;;;;;66.00;45.00;;;;;0.94;100.00;101456.88;6188982;22;46389;-69
2023/12/02 10:05:10;;;;;;;;;39.50;30.75;;;;;1.04;100.00;101463.84;6189778;22;45188;-69
2023/12/02 10:07:56;;;;;;;;;49.75;42.75;;;;;1.11;100.00;101463.00;6216978;22;45287;-69
2023/12/02 10:10:25;;;;;;;;;67.75;49.75;;;;;1.15;100.00;101464.72;6216315;22;45078;-69
2023/12/02 10:12:54;;;;;;;;;58.75;41.75;;;;;1.21;100.00;101467.31;6216157;22;45186;-70
2023/12/02 10:15:22;;;;;;;;;63.75;47.50;;;;;1.26;99.01;101475.16;6216036;22;45318;-69
2023/12/02 10:18:00;;;;;;;;;51.00;42.00;;;;;1.22;97.87;101462.97;6216911;22;45275;-69
2023/12/02 10:20:28;;;;;;;;;55.25;44.50;;;;;1.34;96.98;101470.84;6213414;22;45224;-69
2023/12/02 10:23:25;;;;;;;;;54.75;44.75;;;;;1.19;96.73;101437.81;6215133;22;45285;-69
2023/12/02 10:26:15;;;;;;;;;57.50;41.75;;;;;1.37;95.97;101468.22;6189360;22;46142;-69
2023/12/02 10:29:04;;;;;;;;;51.00;40.25;;;;;1.37;95.70;101468.22;6215472;22;45264;-70
2023/12/02 10:31:31;;;;;;;;;50.75;45.50;;;;;1.44;96.13;101469.97;6189463;22;45272;-70
2023/12/02 10:34:02;;;;;;;;;60.00;46.75;;;;;1.46;94.89;101476.06;6189388;22;47379;-69
2023/12/02 10:36:28;;;;;;;;;63.00;48.00;;;;;1.54;94.68;101471.69;6216844;22;45372;-70
2023/12/02 10:38:54;;;;;;;;;51.50;42.25;;;;;1.62;95.31;101471.72;6216398;22;45319;-69
2023/12/02 10:41:22;;;;;;;;;63.50;49.50;;;;;1.68;95.71;101479.53;6188286;22;45435;-69
2023/12/02 10:44:01;;;;;;;;;59.00;46.00;;;;;1.66;92.95;101481.28;6215847;22;45420;-70
2023/12/02 10:46:27;;;;;;;;;55.00;36.75;;;;;1.71;91.78;101480.41;6216127;22;45248;-69
2023/12/02 10:48:56;;;;;;;;;58.50;44.75;;;;;1.78;91.64;101486.47;6216548;22;45401;-72
2023/12/02 10:51:26;;;;;;;;;48.50;44.50;;;;;1.83;91.58;101476.94;6189420;22;45642;-73
2023/12/02 10:54:03;;;;;;;;;47.50;42.25;;;;;1.86;91.26;101484.75;6215250;22;45374;-72
2023/12/02 10:56:32;;;;;;;;;62.50;46.75;;;;;1.89;91.08;101475.19;6216520;22;45181;-73
2023/12/02 10:59:00;;;;;;;;;57.50;44.50;;;;;2.01;91.22;101477.75;6215163;22;45213;-73
2023/12/02 11:01:36;;;;;;;;;44.50;35.75;;;;;2.00;89.16;101462.97;6216133;22;45382;-72
2023/12/02 11:04:14;;;;;;;;;55.50;42.50;;;;;2.09;89.09;101483.81;6215864;22;45941;-73
2023/12/02 11:06:49;;;;;;;;;64.25;47.75;;;;;2.08;88.50;101471.66;6215878;22;45228;-73
2023/12/02 11:09:23;;;;;;;;;57.25;43.00;;;;;2.15;87.87;101482.09;6216174;22;45296;-72
2023/12/02 11:12:04;;;;;;;;;52.75;43.00;;;;;2.19;87.69;101478.59;6215833;22;45250;-72
2023/12/02 11:14:37;;;;;;;;;47.50;42.25;;;;;2.20;89.10;101475.09;6214552;22;46013;-72